Aérodrome :
LOGIN :

S'inscrire | Disclaimer

   EN    FR    IT 

 










Légende :    VFR   VFR Marginal   IFR   IFR Intensif   IFR Très Intensif
Visi : 
Plafond : 
>= 8 km
>= 3000ft
5 à 8 km
1000 à 3000 ft
1500m à 5 km
500 à 1000 ft
800 à 1500m
200 à 500 ft
< 800m
< 200 ft
Symboles :   Orages  Brouillard  Fortes neiges  Fortes précipitations  Vent > 20 kt
SIGMETs :   Divers  Orages  Givrage  Turbulence  Onde Orograph.  Cendres Volcan.







- Altitude de l'aérodrome : 2001 ft
- Code IATA : MAD


LEMD - Madrid

DERNIER METAR :
  • 292100Z 35003KT 320V020 9999 BKN010 BKN060 11/10 Q1011 RERA R88/29//95 NOSIG

METARs EXPIRÉS :
  • 292047Z 36003KT 320V060 9999 RA SCT010 BKN060 11/10 Q1011 R88/29//95 NOSIG
  • 292030Z 36005KT 9999 FEW008 BKN010 10/10 Q1011 R88/29//95 NOSIG
  • 292000Z 01001KT 9000 FEW008 SCT010 10/10 Q1010 R88/29//95 NOSIG
  • 291930Z 36001KT 9000 -RA FEW008 BKN011 11/10 Q1010 R88/29//95 NOSIG
  • 291900Z 36003KT 340V040 9999 FEW008 BKN013 11/10 Q1010 NOSIG
  • 291830Z 01004KT 9999 FEW008 SCT020 BKN060 12/11 Q1010 NOSIG

TAF AMD TAF LEMD
Valide du 29 à 20h jusqu'au 01 à 00h UTC


292013Z 2920/3024 VRB05KT 9999 SCT006 SCT014 TX14/3016Z TN09/3006Z
PROB40
TEMPO 2920/3008 3000 RA BR BKN010
BECMG 3003/3005 22015KT
TEMPO 3009/3019 22020G30KT
Pas de NOTAMs connus pour ce terrain.



MET'MAP, la Météo Aéronautique d'un coup d'oeil ! - Copyright ORBIFLY Décembre 2007 - Disclaimer

ORBIFLY MET'MAP TEAM :

Programmation & Développement : Alexandra Zaïnal
Conception & Développement : Baudouin d'Aumeries
Co-Programmation & Développement : Marc-Olivier Méhu
Soutien technique & logistique : Manuel Goepfert

Contact : metmap@orbifly.com




SOURCES & CREDITS :

   NOAA